Tiempo atmosférico en la estación meteorológica de Albox, Almería (508 m.)



Fecha
DESCASC
Temp. máxima en grados centígrados (hora)
DESCASC
Temp. mínima en grados centígrados (hora)
DESCASC
Temp. media en grados centígrados
DESCASC
Racha de viento máxima en m/sg (hora)
DESCASC
Velocidad máxima media en intervalos de 10 minutos(hora)
DESCASC
Precipitaciones diarias en mm
DESCASC
Precipitaciones de 00:00 a 06:00 en mm
DESCASC
Precipitaciones de 06:00 a 12:00 en mm
DESCASC
Precipitaciones de 12:00 a 18:00 en mm
DESCASC
Precipitaciones de 18:00 a 24:00 en mm
DESCASC
29-10-2020 25.5 (13:20) 12.7 (06:10) 19.1 7.78 (15:10) 5 (15:00) 0 0 0 0 0
28-10-2020 25 (14:10) 9 (07:00) 17 5.83 (15:00) 3.89 (15:00) 0 0 0 0 0
27-10-2020 23.2 (14:30) 8.1 (00:00) 15.7 10.83 (08:40) 7.78 (08:40) 0 0 0 0 0
26-10-2020 19.2 (03:10) 10.8 (00:00) 15 20 (12:40) 13.61 (11:00) 0 0 0 0 0
25-10-2020 27.4 (15:10) 10.7 (00:00) 19 14.72 (20:40) 10.28 (20:50) 0 0 0 0 0
24-10-2020 23.6 (15:10) 11.5 (00:00) 17.6 8.61 (05:20) 6.67 (05:20) 0 0 0 0 0
23-10-2020 22.5 (14:30) 12.8 (00:00) 17.7 11.67 (11:50) 8.06 (11:50) 0 0 0 0 0
22-10-2020 19.3 (02:20) 15.5 (00:00) 17.4 8.33 (03:00) 5.83 (03:10) 7.6 4 2 1.6 0
21-10-2020 28.4 (14:00) 15.6 (00:00) 22 8.61 (03:40) 6.11 (21:30) 0 0 0 0 0
20-10-2020 24.7 (15:40) 11.8 (00:00) 18.3 6.11 (17:00) 3.89 (16:30) 0 0 0 0 0
19-10-2020 24.7 (15:40) 9.7 (00:00) 17.2 7.5 (15:50) 4.72 (17:00) 0 0 0 0 0
18-10-2020 24.9 (14:30) 10.6 (00:00) 17.8 8.61 (16:50) 5 (16:50) 0 0 0 0 0
17-10-2020 24.8 (14:50) 8.3 (00:00) 16.5 8.89 (15:30) 5.28 (16:00) 0 0 0 0 0
16-10-2020 22.8 (14:20) 9.3 (00:00) 16 9.17 (16:20) 5.56 (16:20) 0 0 0 0 0
15-10-2020 24.1 (15:20) 10.5 (00:00) 17.3 10.28 (16:20) 6.39 (17:50) 0 0 0 0 0
14-10-2020 26.6 (15:10) 14.5 (00:00) 20.6 17.5 (17:50) 11.39 (16:30) 0 0 0 0 0
13-10-2020 28.3 (15:20) 9.9 (00:00) 19.1 9.17 (17:40) 6.39 (17:40) 0 0 0 0 0
12-10-2020 24.3 (14:30) 9 (00:00) 16.6 9.17 (15:10) 5.28 (15:10) 0 0 0 0 0
11-10-2020 22.5 (17:40) 13 (00:00) 17.8 8.89 (13:20) 6.11 (13:20) 0 0 0 0 0
10-10-2020 26.8 (14:30) 14.4 (00:00) 20.6 8.61 (15:10) 5.28 (16:20) 0 0 0 0 0
09-10-2020 27.1 (13:20) 14.2 (00:00) 20.7 7.5 (13:20) 4.72 (13:20) 0 0 0 0 0
08-10-2020 29.1 (15:40) 15.2 (00:00) 22.2 8.33 (15:00) 4.72 (17:20) 0 0 0 0 0
07-10-2020 32.6 (15:20) 15 (00:00) 23.8 8.61 (16:20) 5 (18:30) 0 0 0 0 0
06-10-2020 29.5 (16:00) 11.7 (00:00) 20.6 7.78 (17:20) 5 (17:20) 0 0 0 0 0
05-10-2020 27.7 (15:30) 13.8 (00:00) 20.8 10.28 (11:10) 7.5 (10:50) 0 0 0 0 0
04-10-2020 25.5 (17:10) 11.2 (00:00) 18.3 16.67 (13:20) 11.39 (16:50) 0 0 0 0 0
03-10-2020 23 (16:40) 10.4 (00:00) 16.7 16.94 (02:40) 12.78 (02:40) 0 0 0 0 0
02-10-2020 26.7 (15:10) 14 (00:00) 20.4 27.22 (15:40) 17.5 (15:40) 0 0 0 0 0
01-10-2020 32.5 (16:30) 17.4 (00:00) 24.9 18.33 (23:30) 12.22 (23:30) 0 0 0 0 0

Gráficas

Temp. máximas Temp. mínimas Temp. medias Precipitaciones Rachas de viento máximas Velocidades máximas media en intervalos de 10 minutos

Datos horarios

Fecha y hora oficial Temperatura (ºC) Velocidad del viento (km/h) Dirección del viento Racha (km/h) Dirección de racha Precipitación (mm) Presión (hPa) Tendencia (hPa) Humedad (%)
2020-10-30 23:00:00 13.6 8 Norte 10 Norte 0 -- -- 57
2020-10-30 22:00:00 14.3 8 Noroeste 10 Noroeste 0 -- -- 55
2020-10-30 21:00:00 15.3 6 Norte 12 Noroeste 0 -- -- 52
2020-10-30 20:00:00 16 5 Norte 8 Norte 0 -- -- 50
2020-10-30 19:00:00 17.2 5 Este 12 Este 0 -- -- 46
2020-10-30 18:00:00 20.4 5 Este 19 Sudeste 0 -- -- 39
2020-10-30 17:00:00 23 14 Este 23 Sudeste 0 -- -- 35
2020-10-30 16:00:00 25.1 16 Este 24 Este 0 -- -- 34
2020-10-30 15:00:00 26 13 Este 23 Este 0 -- -- 33
2020-10-30 14:00:00 26.1 11 Este 22 Sudeste 0 -- -- 34
2020-10-30 13:00:00 25.4 8 Este 18 Sudeste 0 -- -- 34
2020-10-30 12:00:00 24.8 8 Sudeste 16 Este 0 -- -- 38
2020-10-30 11:00:00 22.4 5 Sur 13 Sudeste 0 -- -- 44
2020-10-30 10:00:00 19.1 4 Sur 7 Noroeste 0 -- -- 54
2020-10-30 09:00:00 14.9 5 Noroeste 10 Noroeste 0 -- -- 66
2020-10-30 08:00:00 12.6 8 Noroeste 12 Noroeste 0 -- -- 70
2020-10-30 07:00:00 12.2 8 Noroeste 12 Noroeste 0 -- -- 74
2020-10-30 06:00:00 12.8 8 Noroeste 14 Noroeste 0 -- -- 72
2020-10-30 05:00:00 13.1 12 Noroeste 17 Norte 0 -- -- 71
2020-10-30 04:00:00 12.8 11 Noroeste 13 Noroeste 0 -- -- 72
2020-10-30 03:00:00 12.5 5 Norte 9 Norte 0 -- -- 73
2020-10-30 02:00:00 12.7 6 Oeste 10 Oeste 0 -- -- 75
2020-10-30 01:00:00 13.8 9 Noroeste 13 Norte 0 -- -- 73
2020-10-30 00:00:00 13.7 7 Norte 11 Noroeste 0 -- -- 74
2020-10-29 23:00:00 13.9 7 Noroeste 11 Noroeste 0 -- -- 75
2020-10-29 22:00:00 14.7 8 Noroeste 10 Noroeste 0 -- -- 71
2020-10-29 21:00:00 15.2 8 Noroeste 10 Noroeste 0 -- -- 68
2020-10-29 20:00:00 15.8 0 Calma 5 Nordeste 0 -- -- 66
2020-10-29 19:00:00 16.9 4 Este 15 Este 0 -- -- 60
2020-10-29 18:00:00 19.5 11 Este 19 Este 0 -- -- 52
2020-10-29 17:00:00 22.4 8 Sudeste 21 Sudeste 0 -- -- 50
2020-10-29 16:00:00 23.8 13 Este 28 Este 0 -- -- 48
2020-10-29 15:00:00 24.9 18 Este 27 Este 0 -- -- 45
2020-10-29 14:00:00 25.1 15 Este 24 Este 0 -- -- 41
2020-10-29 13:00:00 25 12 Este 21 Este 0 -- -- 39
2020-10-29 12:00:00 24.5 8 Sudeste 15 Sudeste 0 -- -- 39
2020-10-29 11:00:00 23.1 8 Sudeste 14 Este 0 -- -- 42
2020-10-29 10:00:00 19.6 3 Sudoeste 5 Sur 0 -- -- 53
2020-10-29 09:00:00 15.5 2 Oeste 9 Noroeste 0 -- -- 64
2020-10-29 08:00:00 13.2 7 Norte 13 Norte 0 -- -- 68
2020-10-29 07:00:00 13.2 11 Norte 13 Noroeste 0 -- -- 65
2020-10-29 06:00:00 12.8 6 Noroeste 9 Noroeste 0 -- -- 65
2020-10-29 05:00:00 13.3 6 Noroeste 11 Noroeste 0 -- -- 64
2020-10-29 04:00:00 13.4 6 Oeste 13 Noroeste 0 -- -- 63
2020-10-29 03:00:00 13.7 10 Norte 13 Noroeste 0 -- -- 61
2020-10-29 02:00:00 13.2 6 Oeste 12 Norte 0 -- -- 61
2020-10-29 01:00:00 14 10 Noroeste 12 Noroeste 0 -- -- 59
2020-10-29 00:00:00 13.8 4 Oeste 15 Noroeste 0 -- -- 56
2020-10-28 23:00:00 14.5 6 Noroeste 9 Noroeste 0 -- -- 53
2020-10-28 22:00:00 14.8 8 Noroeste 13 Noroeste 0 -- -- 52
2020-10-28 21:00:00 15 8 Noroeste 10 Noroeste 0 -- -- 52
2020-10-28 20:00:00 16.1 4 Noroeste 6 Oeste 0 -- -- 50
2020-10-28 19:00:00 17.5 0 Calma 9 Sudeste 0 -- -- 45
2020-10-28 18:00:00 19.9 7 Este 15 Este 0 -- -- 41
2020-10-28 17:00:00 21.9 10 Este 19 Este 0 -- -- 36
2020-10-28 16:00:00 23.1 12 Este 21 Sudeste 0 -- -- 32
2020-10-28 15:00:00 24.2 14 Este 21 Sudeste 0 -- -- 30
2020-10-28 14:00:00 24.7 9 Este 19 Sudeste 0 -- -- 27
2020-10-28 13:00:00 23.1 5 Este 10 Sudoeste 0 -- -- 26
2020-10-28 12:00:00 22.2 5 Sudoeste 13 Sudoeste 0 -- -- 31
2020-10-28 11:00:00 19 3 Oeste 10 Sudoeste 0 -- -- 37
2020-10-28 10:00:00 15.8 5 Sudoeste 9 Sudoeste 0 -- -- 44
2020-10-28 09:00:00 12.4 2 Sudoeste 9 Noroeste 0 -- -- 53
2020-10-28 08:00:00 9.6 6 Noroeste 12 Noroeste 0 -- -- 57
2020-10-28 07:00:00 9 6 Oeste 13 Noroeste 0 -- -- 57
2020-10-28 06:00:00 9.9 5 Noroeste 8 Noroeste 0 -- -- 52
2020-10-28 05:00:00 9.9 4 Noroeste 11 Noroeste 0 -- -- 51
2020-10-28 04:00:00 9.7 4 Oeste 13 Noroeste 0 -- -- 55
2020-10-28 03:00:00 9.7 5 Norte 7 Norte 0 -- -- 54
2020-10-28 02:00:00 10.5 3 Oeste 10 Noroeste 0 -- -- 50
2020-10-28 01:00:00 10.6 6 Noroeste 10 Norte 0 -- -- 52
2020-10-28 00:00:00 10.4 4 Noroeste 10 Norte 0 -- -- 60
2020-10-27 23:00:00 10.9 4 Norte 8 Noroeste 0 -- -- 67
2020-10-27 22:00:00 12 6 Nordeste 21 Oeste 0 -- -- 66
2020-10-27 21:00:00 12.7 4 Sur 17 Oeste 0 -- -- 65
2020-10-27 20:00:00 12.9 5 Noroeste 10 Este 0 -- -- 74
2020-10-27 19:00:00 14.1 8 Este 14 Este 0 -- -- 69
2020-10-27 18:00:00 16.6 9 Este 18 Este 0 -- -- 58
2020-10-27 17:00:00 19.4 10 Este 23 Este 0 -- -- 47
2020-10-27 16:00:00 21 16 Este 24 Sudoeste 0 -- -- 40
2020-10-27 15:00:00 22.4 17 Sudoeste 33 Oeste 0 -- -- 23
2020-10-27 14:00:00 21.9 15 Sudoeste 27 Sudoeste 0 -- -- 25
2020-10-27 13:00:00 20.9 13 Oeste 24 Oeste 0 -- -- 28
2020-10-27 12:00:00 18.7 13 Sudoeste 29 Sudoeste 0 -- -- 35
2020-10-27 11:00:00 16.6 15 Sudoeste 23 Oeste 0 -- -- 40
2020-10-27 10:00:00 13.7 14 Oeste 28 Sudoeste 0 -- -- 47
2020-10-27 09:00:00 10.7 16 Oeste 39 Oeste 0 -- -- 58
2020-10-27 08:00:00 9.1 17 Oeste 32 Oeste 0 -- -- 62
2020-10-27 07:00:00 8.1 10 Sudoeste 24 Sudoeste 0 -- -- 66
2020-10-27 06:00:00 8.3 6 Sudoeste 22 Oeste 0 -- -- 65
2020-10-27 05:00:00 9.2 14 Noroeste 32 Oeste 0 -- -- 62
2020-10-27 04:00:00 8.9 15 Oeste 30 Oeste 0 -- -- 63
2020-10-27 03:00:00 9.6 22 Oeste 31 Oeste 0 -- -- 62
2020-10-27 02:00:00 9.9 25 Oeste 32 Oeste 0 -- -- 61
2020-10-27 01:00:00 10.1 16 Oeste 33 Oeste 0 -- -- 60
2020-10-27 00:00:00 10.8 23 Oeste 36 Oeste 0 -- -- 57
2020-10-26 23:00:00 11 18 Noroeste 24 Oeste 0 -- -- 57
2020-10-26 22:00:00 10.9 11 Oeste 19 Oeste 0 -- -- 57
2020-10-26 21:00:00 12.1 13 Oeste 30 Oeste 0 -- -- 52
2020-10-26 20:00:00 13.3 19 Oeste 41 Oeste 0 -- -- 47
2020-10-26 19:00:00 13.7 23 Oeste 39 Oeste 0 -- -- 46
2020-10-26 18:00:00 15.5 25 Oeste 49 Oeste 0 -- -- 40
2020-10-26 17:00:00 17.3 37 Oeste 55 Oeste 0 -- -- 37
2020-10-26 16:00:00 18.1 40 Oeste 62 Oeste 0 -- -- 35
2020-10-26 15:00:00 17.9 42 Oeste 63 Oeste 0 -- -- 34
2020-10-26 14:00:00 17.3 47 Oeste 68 Oeste 0 -- -- 35
2020-10-26 13:00:00 16.8 41 Oeste 72 Oeste 0 -- -- 39
2020-10-26 12:00:00 16.3 39 Oeste 63 Noroeste 0 -- -- 42
2020-10-26 11:00:00 15.1 49 Oeste 67 Oeste 0 -- -- 44
2020-10-26 10:00:00 14.5 33 Noroeste 49 Oeste 0 -- -- 53
2020-10-26 09:00:00 12.5 24 Noroeste 46 Oeste 0 -- -- 59
2020-10-26 08:00:00 12.6 36 Oeste 63 Oeste 0 -- -- 60
2020-10-26 07:00:00 13.4 32 Oeste 62 Oeste 0 -- -- 58
2020-10-26 06:00:00 13.9 40 Oeste 64 Oeste 0 -- -- 56
2020-10-26 05:00:00 14.2 37 Oeste 62 Oeste 0 -- -- 66
2020-10-26 04:00:00 16.2 39 Oeste 57 Oeste 0 -- -- 65
2020-10-26 03:00:00 18.9 25 Oeste 58 Oeste 0 -- -- 57
2020-10-26 02:00:00 17.7 23 Oeste 37 Noroeste 0 -- -- 60
2020-10-26 01:00:00 16.8 26 Oeste 48 Oeste 0 -- -- 60
2020-10-26 00:00:00 15.8 16 Sudoeste 49 Oeste 0 -- -- 56
2020-10-25 23:00:00 15.4 21 Oeste 43 Noroeste 0 -- -- 56
2020-10-25 22:00:00 15.7 31 Noroeste 53 Oeste 0 -- -- 56
2020-10-25 21:00:00 16.5 30 Oeste 53 Noroeste 0 -- -- 57
2020-10-25 20:00:00 17.8 30 Oeste 42 Oeste 0 -- -- 52
2020-10-25 19:00:00 19.4 21 Oeste 36 Oeste 0 -- -- 45
2020-10-25 18:00:00 22.5 20 Oeste 29 Oeste 0 -- -- 34
2020-10-25 17:00:00 25.4 17 Oeste 35 Noroeste 0 -- -- 27
2020-10-25 16:00:00 26.5 24 Oeste 35 Sudoeste 0 -- -- 26
2020-10-25 15:00:00 27.3 15 Oeste 26 Sudoeste 0 -- -- 24
2020-10-25 14:00:00 26.1 10 Sur 24 Sudoeste 0 -- -- 23
2020-10-25 13:00:00 24.9 12 Sudoeste 22 Sudoeste 0 -- -- 29
2020-10-25 12:00:00 22 15 Sudoeste 30 Sudoeste 0 -- -- 38
2020-10-25 11:00:00 19.4 20 Sudoeste 27 Sudoeste 0 -- -- 45
2020-10-25 10:00:00 16.5 13 Sudoeste 21 Sudoeste 0 -- -- 51
2020-10-25 09:00:00 13.4 6 Sudoeste 14 Sudoeste 0 -- -- 58
2020-10-25 08:00:00 10.8 4 Sur 10 Oeste 0 -- -- 67
2020-10-25 07:00:00 11.8 9 Oeste 25 Oeste 0 -- -- 67
2020-10-25 06:00:00 13.2 19 Oeste 39 Oeste 0 -- -- 66
2020-10-25 05:00:00 12.8 5 Noroeste 31 Oeste 0 -- -- 67
2020-10-25 04:00:00 12.1 7 Oeste 21 Oeste 0 -- -- 70
2020-10-25 03:00:00 12 5 Oeste 14 Noroeste 0 -- -- 71
2020-10-25 02:00:00 12.7 7 Noroeste 22 Oeste 0 -- -- 70
2020-10-25 01:00:00 13.6 13 Oeste 25 Oeste 0 -- -- 70
2020-10-25 00:00:00 14.8 21 Oeste 30 Oeste 0 -- -- 65
2020-10-24 23:00:00 15.6 22 Oeste 31 Oeste 0 -- -- 62
2020-10-24 22:00:00 15 11 Oeste 18 Oeste 0 -- -- 65
2020-10-24 21:00:00 15.2 5 Oeste 8 Oeste 0 -- -- 63
2020-10-24 20:00:00 16.2 5 Nordeste 18 Nordeste 0 -- -- 59
2020-10-24 19:00:00 19 8 Este 19 Este 0 -- -- 51
2020-10-24 18:00:00 20.7 15 Este 22 Sudeste 0 -- -- 45
2020-10-24 17:00:00 22.7 15 Este 28 Este 0 -- -- 41
2020-10-24 16:00:00 23.5 12 Sudeste 29 Nordeste 0 -- -- 40
2020-10-24 15:00:00 23.4 7 Sudeste 18 Este 0 -- -- 35
2020-10-24 14:00:00 22.8 5 Sur 19 Oeste 0 -- -- 35
2020-10-24 13:00:00 21.4 6 Sudoeste 17 Sudoeste 0 -- -- 44
2020-10-24 12:00:00 19.5 7 Sudoeste 16 Oeste 0 -- -- 46
2020-10-24 11:00:00 16.6 10 Sudoeste 20 Oeste 0 -- -- 60
2020-10-24 10:00:00 13.7 18 Oeste 25 Oeste 0 -- -- 69
2020-10-24 09:00:00 11.5 9 Oeste 23 Oeste 0 -- -- 77
2020-10-24 08:00:00 12.1 18 Oeste 25 Oeste 0 -- -- 73
2020-10-24 07:00:00 11.7 12 Oeste 17 Oeste 0 -- -- 76
2020-10-24 06:00:00 12 12 Oeste 31 Oeste 0 -- -- 74
2020-10-24 05:00:00 12.5 21 Oeste 27 Oeste 0 -- -- 73
2020-10-24 04:00:00 12.8 18 Oeste 25 Oeste 0 -- -- 71
2020-10-24 03:00:00 12.5 10 Oeste 21 Oeste 0 -- -- 72
2020-10-24 02:00:00 13.1 16 Oeste 24 Oeste 0 -- -- 71
2020-10-24 01:00:00 13.7 11 Oeste 25 Oeste 0 -- -- 68
2020-10-24 00:00:00 14.5 19 Oeste 33 Oeste 0 -- -- 64
2020-10-23 23:00:00 14.2 15 Oeste 23 Oeste 0 -- -- 65
2020-10-23 22:00:00 14.8 17 Oeste 23 Oeste 0 -- -- 64
2020-10-23 21:00:00 16.2 19 Sudoeste 32 Oeste 0 -- -- 59
2020-10-23 20:00:00 17 17 Oeste 32 Oeste 0 -- -- 56
2020-10-23 19:00:00 19.9 21 Noroeste 35 Noroeste 0 -- -- 44
2020-10-23 18:00:00 21.5 25 Noroeste 42 Oeste 0 -- -- 41
2020-10-23 17:00:00 20.3 21 Oeste 35 Oeste 0 -- -- 43
2020-10-23 16:00:00 20.7 15 Oeste 25 Noroeste 0 -- -- 45
2020-10-23 15:00:00 21.5 15 Oeste 28 Sudoeste 0 -- -- 46
2020-10-23 14:00:00 20.6 16 Oeste 37 Noroeste 0 -- -- 47
2020-10-23 13:00:00 19.8 22 Noroeste 35 Oeste 0 -- -- 49
2020-10-23 12:00:00 18.6 28 Oeste 42 Oeste 0 -- -- 53
2020-10-23 11:00:00 17.1 26 Oeste 36 Oeste 0 -- -- 60
2020-10-23 10:00:00 14 2 Este 22 Oeste 0 -- -- 76
2020-10-23 09:00:00 12.8 12 Oeste 18 Noroeste 0 -- -- 80
2020-10-23 08:00:00 13.7 15 Oeste 25 Oeste 0 -- -- 76
2020-10-23 07:00:00 13.8 11 Oeste 24 Oeste 0 -- -- 76
2020-10-23 06:00:00 14 14 Oeste 28 Oeste 0 -- -- 77
2020-10-23 05:00:00 14.3 19 Oeste 30 Oeste 0 -- -- 76
2020-10-23 04:00:00 14.6 22 Oeste 31 Oeste 0 -- -- 77
2020-10-23 03:00:00 14.4 10 Sudoeste 26 Oeste 0 -- -- 82
2020-10-23 02:00:00 14.9 17 Oeste 22 Oeste 0 -- -- 80
2020-10-23 01:00:00 15.2 4 Sudoeste 19 Oeste 0 -- -- 83
2020-10-23 00:00:00 15.5 7 Sudoeste 14 Sudoeste 0 -- -- 89
2020-10-22 23:00:00 15.5 2 Oeste 6 Norte 0 -- -- 88
2020-10-22 22:00:00 15.6 5 Norte 6 Norte 0 -- -- 88
2020-10-22 21:00:00 16.4 2 Este 12 Este 0 -- -- 84
2020-10-22 20:00:00 16.6 10 Este 17 Nordeste 0 -- -- 83
2020-10-22 19:00:00 17.4 6 Este 14 Este 0 -- -- 80
2020-10-22 18:00:00 18.1 8 Este 12 Este 0 -- -- 78
2020-10-22 17:00:00 17.7 5 Este 13 Este 0 -- -- 80
2020-10-22 16:00:00 17.8 6 Este 15 Este 0 -- -- 82
2020-10-22 15:00:00 17.5 12 Este 18 Este 0.2 -- -- 85
2020-10-22 14:00:00 16.9 6 Norte 10 Norte 0.8 -- -- 89
2020-10-22 13:00:00 16.7 5 Oeste 9 Oeste 0.6 -- -- 90
2020-10-22 12:00:00 16.5 9 Oeste 25 Sudoeste 0.2 -- -- 84
2020-10-22 11:00:00 16.4 6 Noroeste 12 Noroeste 0 -- -- 89
2020-10-22 10:00:00 15.8 7 Norte 13 Norte 0 -- -- 89
2020-10-22 09:00:00 15.8 7 Noroeste 23 Norte 0.4 -- -- 88
2020-10-22 08:00:00 15.8 12 Nordeste 17 Norte 1.4 -- -- 86
2020-10-22 07:00:00 17.1 5 Nordeste 14 Norte 0 -- -- 71
2020-10-22 06:00:00 16.1 4 Norte 14 Norte 0.2 -- -- 83
2020-10-22 05:00:00 16.6 8 Noroeste 21 Noroeste 0 -- -- 77
2020-10-22 04:00:00 16.2 17 Noroeste 30 Noroeste 0.6 -- -- 81
2020-10-22 03:00:00 16.8 17 Noroeste 30 Noroeste 3.2 -- -- 76
2020-10-22 02:00:00 19.2 9 Nordeste 13 Nordeste 0 -- -- 53
2020-10-22 01:00:00 19 7 Este 10 Nordeste 0 -- -- 56
2020-10-22 00:00:00 19.2 5 Oeste 11 Sudoeste 0 -- -- 56
2020-10-21 23:00:00 20.1 6 Norte 18 Oeste 0 -- -- 53
2020-10-21 22:00:00 20.9 14 Oeste 28 Oeste 0 -- -- 48
2020-10-21 21:00:00 21.6 12 Sudoeste 20 Sudoeste 0 -- -- 43
2020-10-21 20:00:00 22.5 11 Sudoeste 15 Oeste 0 -- -- 40
2020-10-21 19:00:00 23.9 9 Oeste 22 Oeste 0 -- -- 37
2020-10-21 18:00:00 25.4 15 Oeste 25 Oeste 0 -- -- 35
2020-10-21 17:00:00 27.1 19 Oeste 29 Oeste 0 -- -- 33
2020-10-21 16:00:00 27.5 15 Oeste 25 Oeste 0 -- -- 32
2020-10-21 15:00:00 27.8 7 Oeste 29 Sur 0 -- -- 28
2020-10-21 14:00:00 28.4 16 Sur 31 Sudeste 0 -- -- 29
2020-10-21 13:00:00 26.6 9 Sur 21 Sudeste 0 -- -- 30
2020-10-21 12:00:00 25.7 4 Sur 14 Sudeste 0 -- -- 31
2020-10-21 11:00:00 22.9 4 Oeste 10 Oeste 0 -- -- 38
2020-10-21 10:00:00 19.4 3 Oeste 16 Noroeste 0 -- -- 51
2020-10-21 09:00:00 16.1 10 Oeste 18 Oeste 0 -- -- 59
2020-10-21 08:00:00 17.7 4 Sudoeste 22 Noroeste 0 -- -- 59
2020-10-21 07:00:00 19.4 7 Noroeste 18 Este 0 -- -- 54
2020-10-21 06:00:00 18.6 12 Este 21 Este 0 -- -- 57
2020-10-21 05:00:00 19.8 8 Oeste 18 Oeste 0 -- -- 53
2020-10-21 04:00:00 20.4 12 Oeste 31 Noroeste 0 -- -- 52
2020-10-21 03:00:00 18.1 9 Noroeste 13 Noroeste 0 -- -- 42
2020-10-21 02:00:00 16 6 Norte 12 Nordeste 0 -- -- 52
2020-10-21 01:00:00 16.1 5 Noroeste 12 Oeste 0 -- -- 64
2020-10-21 00:00:00 16.2 3 Noroeste 9 Noroeste 0 -- -- 62
2020-10-20 23:00:00 16.1 5 Noroeste 13 Noroeste 0 -- -- 67
2020-10-20 22:00:00 16 5 Nordeste 9 Nordeste 0 -- -- 79
2020-10-20 21:00:00 17 3 Sur 8 Sudeste 0 -- -- 72
2020-10-20 20:00:00 18.2 0 Calma 13 Nordeste 0 -- -- 70
2020-10-20 19:00:00 19.1 10 Nordeste 20 Este 0 -- -- 67
2020-10-20 18:00:00 20.8 9 Este 18 Este 0 -- -- 60
2020-10-20 17:00:00 22.6 13 Sudeste 22 Sudeste 0 -- -- 50
2020-10-20 16:00:00 24 11 Sudeste 21 Este 0 -- -- 42
2020-10-20 15:00:00 24 10 Este 18 Este 0 -- -- 40
2020-10-20 14:00:00 22 8 Este 18 Este 0 -- -- 39
2020-10-20 13:00:00 21.4 6 Sudeste 15 Este 0 -- -- 37
2020-10-20 12:00:00 19.2 9 Sudeste 14 Sudeste 0 -- -- 42
2020-10-20 11:00:00 16.5 0 Calma 9 Sudeste 0 -- -- 46
2020-10-20 10:00:00 15.7 0 Calma 8 Noroeste 0 -- -- 47
2020-10-20 09:00:00 14 5 Noroeste 7 Noroeste 0 -- -- 47
2020-10-20 08:00:00 13.2 3 Norte 8 Nordeste 0 -- -- 53
2020-10-20 07:00:00 12.9 3 Noroeste 8 Oeste 0 -- -- 52
2020-10-20 06:00:00 12.2 6 Oeste 8 Oeste 0 -- -- 55
2020-10-20 05:00:00 12.6 4 Norte 10 Noroeste 0 -- -- 54
2020-10-20 04:00:00 11.8 7 Nordeste 8 Norte 0 -- -- 65
2020-10-20 03:00:00 12.5 5 Norte 11 Norte 0 -- -- 67
2020-10-20 02:00:00 12.5 8 Norte 11 Noroeste 0 -- -- 65
2020-10-20 01:00:00 13.1 6 Norte 9 Noroeste 0 -- -- 65
2020-10-20 00:00:00 13.1 5 Oeste 11 Noroeste 0 -- -- 67
2020-10-19 23:00:00 13.3 8 Noroeste 12 Noroeste 0 -- -- 67
2020-10-19 22:00:00 14.5 8 Noroeste 10 Norte 0 -- -- 71
2020-10-19 21:00:00 15.5 5 Este 8 Este 0 -- -- 73
2020-10-19 20:00:00 16.8 5 Este 16 Este 0 -- -- 62
2020-10-19 19:00:00 19.5 9 Sudeste 21 Sudeste 0 -- -- 45
2020-10-19 18:00:00 22.1 12 Sudeste 23 Este 0 -- -- 38
2020-10-19 17:00:00 23.3 17 Este 24 Este 0 -- -- 38
2020-10-19 16:00:00 24.3 14 Sudeste 27 Sudeste 0 -- -- 39
2020-10-19 15:00:00 24.3 13 Sudeste 24 Este 0 -- -- 35
2020-10-19 14:00:00 24.2 10 Sudeste 22 Este 0 -- -- 26
2020-10-19 13:00:00 22.7 9 Este 18 Este 0 -- -- 27
2020-10-19 12:00:00 20.8 4 Sur 9 Este 0 -- -- 33
2020-10-19 11:00:00 17.6 3 Sur 6 Sudeste 0 -- -- 39
2020-10-19 10:00:00 13.8 2 Noroeste 7 Norte 0 -- -- 45
2020-10-19 09:00:00 10.9 4 Norte 12 Noroeste 0 -- -- 50
2020-10-19 08:00:00 10.2 8 Norte 11 Noroeste 0 -- -- 50
2020-10-19 07:00:00 9.9 9 Noroeste 12 Noroeste 0 -- -- 53
2020-10-19 06:00:00 10.3 5 Noroeste 15 Noroeste 0 -- -- 52
2020-10-19 05:00:00 11.1 10 Norte 14 Noroeste 0 -- -- 50
2020-10-19 04:00:00 10.5 5 Noroeste 14 Norte 0 -- -- 48
2020-10-19 03:00:00 10.9 7 Noroeste 16 Norte 0 -- -- 47
2020-10-19 02:00:00 11.7 13 Norte 17 Norte 0 -- -- 47
2020-10-19 01:00:00 11.8 11 Noroeste 14 Noroeste 0 -- -- 55
2020-10-19 00:00:00 12.7 10 Norte 15 Norte 0 -- -- 55
2020-10-18 23:00:00 12.9 11 Norte 14 Noroeste 0 -- -- 56
2020-10-18 22:00:00 13.1 9 Norte 10 Norte 0 -- -- 55
2020-10-18 21:00:00 14.9 2 Nordeste 6 Este 0 -- -- 52
2020-10-18 20:00:00 16.6 5 Este 13 Sudeste 0 -- -- 45
2020-10-18 19:00:00 19.9 9 Sudeste 19 Sudeste 0 -- -- 38
2020-10-18 18:00:00 22.3 13 Sudeste 27 Este 0 -- -- 32
2020-10-18 17:00:00 23.6 17 Este 31 Este 0 -- -- 29
2020-10-18 16:00:00 24.4 15 Este 28 Este 0 -- -- 27
2020-10-18 15:00:00 24.6 15 Sudeste 26 Este 0 -- -- 28
2020-10-18 14:00:00 24.2 13 Sudeste 24 Sudeste 0 -- -- 26
2020-10-18 13:00:00 23.3 12 Sudeste 21 Sudeste 0 -- -- 28
2020-10-18 12:00:00 21.9 7 Sudeste 15 Sudeste 0 -- -- 36
2020-10-18 11:00:00 18 4 Sudoeste 6 Sur 0 -- -- 46
2020-10-18 10:00:00 14.5 4 Sudoeste 12 Noroeste 0 -- -- 57
2020-10-18 09:00:00 12.1 9 Norte 12 Norte 0 -- -- 61
2020-10-18 08:00:00 10.6 5 Oeste 11 Noroeste 0 -- -- 65
2020-10-18 07:00:00 11.1 9 Noroeste 11 Noroeste 0 -- -- 63
2020-10-18 06:00:00 11.2 6 Noroeste 13 Noroeste 0 -- -- 61
2020-10-18 05:00:00 11.1 8 Noroeste 10 Noroeste 0 -- -- 63
2020-10-18 04:00:00 11.7 9 Noroeste 12 Noroeste 0 -- -- 59
2020-10-18 03:00:00 11.4 7 Noroeste 12 Noroeste 0 -- -- 62
2020-10-18 02:00:00 11.4 9 Noroeste 13 Noroeste 0 -- -- 65
2020-10-18 01:00:00 11.8 8 Norte 13 Norte 0 -- -- 65
2020-10-18 00:00:00 12.1 7 Norte 10 Noroeste 0 -- -- 64
2020-10-17 23:00:00 13 7 Noroeste 9 Noroeste 0 -- -- 61
2020-10-17 22:00:00 13.7 5 Noroeste 8 Noroeste 0 -- -- 60
2020-10-17 21:00:00 14.9 0 Calma 8 Este 0 -- -- 61
2020-10-17 20:00:00 16.6 5 Este 13 Este 0 -- -- 55
2020-10-17 19:00:00 19.5 9 Este 21 Este 0 -- -- 44
2020-10-17 18:00:00 20.2 14 Este 26 Este 0 -- -- 45
2020-10-17 17:00:00 22.5 16 Este 30 Este 0 -- -- 43
2020-10-17 16:00:00 23.5 19 Sudeste 32 Este 0 -- -- 43
2020-10-17 15:00:00 24.6 15 Sudeste 27 Este 0 -- -- 28
2020-10-17 14:00:00 23.9 10 Sudeste 22 Este 0 -- -- 25
2020-10-17 13:00:00 22.9 9 Sur 17 Sudeste 0 -- -- 26
2020-10-17 12:00:00 20.4 5 Sudeste 12 Sudoeste 0 -- -- 31
2020-10-17 11:00:00 15.9 4 Sur 8 Sudoeste 0 -- -- 43
2020-10-17 10:00:00 12.4 4 Oeste 11 Noroeste 0 -- -- 54
2020-10-17 09:00:00 8.5 6 Noroeste 16 Noroeste 0 -- -- 62
2020-10-17 08:00:00 8.9 10 Noroeste 14 Norte 0 -- -- 62
2020-10-17 07:00:00 9 5 Noroeste 14 Noroeste 0 -- -- 60
2020-10-17 06:00:00 9.4 9 Norte 13 Noroeste 0 -- -- 59
2020-10-17 05:00:00 9.2 7 Norte 12 Noroeste 0 -- -- 64
2020-10-17 04:00:00 9.9 8 Noroeste 13 Noroeste 0 -- -- 68
2020-10-17 03:00:00 9.9 6 Norte 8 Norte 0 -- -- 78
2020-10-17 02:00:00 10 5 Nordeste 9 Norte 0 -- -- 82
2020-10-17 01:00:00 11 4 Norte 9 Noroeste 0 -- -- 77
2020-10-17 00:00:00 11.7 9 Noroeste 11 Noroeste 0 -- -- 75
2020-10-16 23:00:00 12.7 7 Noroeste 8 Noroeste 0 -- -- 76
2020-10-16 22:00:00 13.3 3 Norte 6 Este 0 -- -- 76
2020-10-16 21:00:00 14.2 3 Nordeste 15 Nordeste 0 -- -- 72
2020-10-16 20:00:00 15.2 10 Este 21 Este 0 -- -- 66
2020-10-16 19:00:00 17.7 15 Este 28 Este 0 -- -- 55
2020-10-16 18:00:00 19.8 17 Este 28 Este 0 -- -- 44
2020-10-16 17:00:00 21.6 14 Sudeste 33 Este 0 -- -- 36
2020-10-16 16:00:00 22 18 Este 33 Sudeste 0 -- -- 33
2020-10-16 15:00:00 22.5 17 Sudeste 33 Este 0 -- -- 31
2020-10-16 14:00:00 22.4 11 Sudeste 28 Sudeste 0 -- -- 30
2020-10-16 13:00:00 21.6 14 Sudeste 23 Sudeste 0 -- -- 31
2020-10-16 12:00:00 20.1 8 Sudeste 16 Sudeste 0 -- -- 33
2020-10-16 11:00:00 16.7 3 Sudoeste 9 Sudoeste 0 -- -- 46
2020-10-16 10:00:00 12.3 4 Sudoeste 10 Noroeste 0 -- -- 59
2020-10-16 09:00:00 10.2 9 Noroeste 12 Noroeste 0 -- -- 64
2020-10-16 08:00:00 9.3 9 Noroeste 12 Noroeste 0 -- -- 69
2020-10-16 07:00:00 9.7 7 Noroeste 12 Norte 0 -- -- 68
2020-10-16 06:00:00 9.7 5 Noroeste 12 Norte 0 -- -- 68
2020-10-16 05:00:00 11.2 8 Norte 13 Noroeste 0 -- -- 64
2020-10-16 04:00:00 10.9 7 Norte 9 Norte 0 -- -- 68
2020-10-16 03:00:00 11.4 6 Sudoeste 14 Norte 0 -- -- 68
2020-10-16 02:00:00 12.8 6 Noroeste 10 Noroeste 0 -- -- 72
2020-10-16 01:00:00 12.7 6 Oeste 15 Norte 0 -- -- 72
2020-10-16 00:00:00 13.1 11 Norte 14 Noroeste 0 -- -- 76
2020-10-15 23:00:00 13 6 Norte 9 Norte 0 -- -- 80
2020-10-15 22:00:00 14.4 2 Sur 13 Este 0 -- -- 77
2020-10-15 21:00:00 14.9 10 Nordeste 25 Nordeste 0 -- -- 77
2020-10-15 20:00:00 16.6 16 Este 26 Este 0 -- -- 63
2020-10-15 19:00:00 19.2 13 Sudeste 31 Sudeste 0 -- -- 45
2020-10-15 18:00:00 20.1 21 Este 35 Este 0 -- -- 49
2020-10-15 17:00:00 21.3 18 Este 37 Este 0 -- -- 45
2020-10-15 16:00:00 23.4 19 Sudeste 35 Este 0 -- -- 39
2020-10-15 15:00:00 23.7 13 Oeste 29 Noroeste 0 -- -- 23
2020-10-15 14:00:00 22.6 16 Noroeste 34 Noroeste 0 -- -- 25
2020-10-15 13:00:00 21.1 16 Noroeste 28 Noroeste 0 -- -- 27
2020-10-15 12:00:00 20.3 19 Noroeste 32 Noroeste 0 -- -- 30
2020-10-15 11:00:00 17.6 6 Sudoeste 9 Sudoeste 0 -- -- 36
2020-10-15 10:00:00 14.4 2 Noroeste 13 Oeste 0 -- -- 43
2020-10-15 09:00:00 10.7 10 Noroeste 13 Noroeste 0 -- -- 50
2020-10-15 08:00:00 10.8 7 Noroeste 10 Noroeste 0 -- -- 47
2020-10-15 07:00:00 10.6 5 Norte 10 Noroeste 0 -- -- 47
2020-10-15 06:00:00 11.1 6 Noroeste 10 Norte 0 -- -- 45
2020-10-15 05:00:00 10.8 8 Norte 13 Noroeste 0 -- -- 47
2020-10-15 04:00:00 11.1 8 Norte 17 Noroeste 0 -- -- 49
2020-10-15 03:00:00 11.4 11 Noroeste 17 Noroeste 0 -- -- 56
2020-10-15 02:00:00 12.8 2 Noroeste 6 Nordeste 0 -- -- 71
2020-10-15 01:00:00 13.6 3 Nordeste 9 Sudeste 0 -- -- 71
2020-10-15 00:00:00 14.5 5 Sudeste 13 Este 0 -- -- 53
2020-10-14 23:00:00 15.8 4 Sudeste 30 Noroeste 0 -- -- 52
2020-10-14 22:00:00 17.2 21 Noroeste 41 Noroeste 0 -- -- 42
2020-10-14 21:00:00 18.4 25 Noroeste 36 Oeste 0 -- -- 41
2020-10-14 20:00:00 19.4 22 Oeste 39 Oeste 0 -- -- 34
2020-10-14 19:00:00 21.8 27 Noroeste 46 Noroeste 0 -- -- 29
2020-10-14 18:00:00 23.1 37 Noroeste 63 Noroeste 0 -- -- 27
2020-10-14 17:00:00 24.8 37 Noroeste 58 Noroeste 0 -- -- 24
2020-10-14 16:00:00 25.4 36 Noroeste 59 Noroeste 0 -- -- 25
2020-10-14 15:00:00 26.4 29 Noroeste 48 Noroeste 0 -- -- 23
2020-10-14 14:00:00 25.7 29 Noroeste 46 Noroeste 0 -- -- 23
2020-10-14 13:00:00 24.7 25 Noroeste 43 Noroeste 0 -- -- 24
2020-10-14 12:00:00 23.6 23 Oeste 39 Oeste 0 -- -- 28
2020-10-14 11:00:00 21.9 18 Noroeste 29 Noroeste 0 -- -- 36
2020-10-14 10:00:00 19.7 6 Sudeste 10 Este 0 -- -- 38
2020-10-14 09:00:00 16 5 Sur 12 Oeste 0 -- -- 42
2020-10-14 08:00:00 17.1 9 Oeste 27 Noroeste 0 -- -- 39
2020-10-14 07:00:00 17.8 17 Noroeste 27 Oeste 0 -- -- 39
2020-10-14 06:00:00 18.1 22 Oeste 31 Oeste 0 -- -- 39
2020-10-14 05:00:00 18.3 23 Oeste 35 Oeste 0 -- -- 39
2020-10-14 04:00:00 18.6 28 Oeste 39 Sudoeste 0 -- -- 38
2020-10-14 03:00:00 16.7 15 Sudoeste 23 Oeste 0 -- -- 43
2020-10-14 02:00:00 15.6 10 Oeste 16 Oeste 0 -- -- 47
2020-10-14 01:00:00 16 8 Noroeste 12 Noroeste 0 -- -- 47
2020-10-14 00:00:00 15.7 9 Noroeste 15 Oeste 0 -- -- 49
2020-10-13 23:00:00 16.5 6 Noroeste 11 Noroeste 0 -- -- 48
2020-10-13 22:00:00 17.4 10 Noroeste 12 Noroeste 0 -- -- 45
2020-10-13 21:00:00 18.4 9 Norte 12 Nordeste 0 -- -- 44
2020-10-13 20:00:00 20 9 Nordeste 20 Este 0 -- -- 41
2020-10-13 19:00:00 22.6 13 Este 30 Este 0 -- -- 35
2020-10-13 18:00:00 24.7 21 Este 33 Este 0 -- -- 32
2020-10-13 17:00:00 26.7 18 Sudeste 32 Sudeste 0 -- -- 29
2020-10-13 16:00:00 27.7 18 Sudeste 31 Sudeste 0 -- -- 28
2020-10-13 15:00:00 27.6 9 Sudeste 22 Este 0 -- -- 27
2020-10-13 14:00:00 27 7 Sudeste 16 Sudeste 0 -- -- 27
2020-10-13 13:00:00 25.7 8 Sudeste 15 Sudoeste 0 -- -- 28
2020-10-13 12:00:00 22.7 9 Sudoeste 17 Sudoeste 0 -- -- 25
2020-10-13 11:00:00 18.7 4 Sudoeste 9 Sudoeste 0 -- -- 31
2020-10-13 10:00:00 -- -- -- -- -- -- -- -- --
2020-10-13 09:00:00 11.3 6 Noroeste 11 Noroeste 0 -- -- 44
2020-10-13 08:00:00 10.2 7 Noroeste 12 Oeste 0 -- -- 46
2020-10-13 07:00:00 10.3 5 Oeste 10 Noroeste 0 -- -- 48
2020-10-13 06:00:00 10.8 6 Noroeste 12 Noroeste 0 -- -- 47
2020-10-13 05:00:00 10.5 8 Noroeste 10 Noroeste 0 -- -- 48
2020-10-13 04:00:00 -- -- -- -- -- -- -- -- --
2020-10-13 03:00:00 10.3 6 Noroeste 14 Noroeste 0 -- -- 56
2020-10-13 02:00:00 10.6 8 Norte 14 Noroeste 0 -- -- 60
2020-10-13 01:00:00 -- -- -- -- -- -- -- -- --
2020-10-13 00:00:00 11 5 Noroeste 9 Noroeste 0 -- -- 62
2020-10-12 23:00:00 11.7 7 Noroeste 9 Norte 0 -- -- 60
2020-10-12 22:00:00 12.3 3 Norte 6 Este 0 -- -- 61
2020-10-12 21:00:00 13.4 4 Este 11 Este 0 -- -- 58
2020-10-12 20:00:00 15.4 5 Sudeste 18 Sudeste 0 -- -- 48
2020-10-12 19:00:00 18.3 11 Este 20 Este 0 -- -- 41
2020-10-12 18:00:00 -- -- -- -- -- -- -- -- --
2020-10-12 17:00:00 21.8 16 Sudeste 32 Sudeste 0 -- -- 32
2020-10-12 16:00:00 23.5 17 Sudeste 33 Este 0 -- -- 28
2020-10-12 15:00:00 24.1 18 Sudeste 32 Sudeste 0 -- -- 25
2020-10-12 14:00:00 23.4 6 Sudoeste 15 Nordeste 0 -- -- 21
2020-10-12 13:00:00 21.5 5 Noroeste 19 Sudoeste 0 -- -- 24
2020-10-12 12:00:00 20.4 3 Nordeste 11 Nordeste 0 -- -- 24
2020-10-12 11:00:00 16.9 4 Oeste 11 Sudoeste 0 -- -- 34
2020-10-12 10:00:00 14.3 3 Este 6 Oeste 0 -- -- 41
2020-10-12 09:00:00 10.8 3 Nordeste 15 Noroeste 0 -- -- 45
2020-10-12 08:00:00 9.1 6 Nordeste 18 Noroeste 0 -- -- 50
2020-10-12 07:00:00 9 5 Norte 16 Norte 0 -- -- 51
2020-10-12 06:00:00 10 11 Noroeste 16 Noroeste 0 -- -- 58
2020-10-12 05:00:00 9.8 4 Norte 10 Nordeste 0 -- -- 69
2020-10-12 04:00:00 -- -- -- -- -- -- -- -- --
2020-10-12 03:00:00 11.7 5 Oeste 9 Noroeste 0 -- -- 89
2020-10-12 02:00:00 12.2 4 Noroeste 9 Norte 0 -- -- 89
2020-10-12 01:00:00 12.5 4 Noroeste 11 Nordeste 0 -- -- 87
2020-10-12 00:00:00 13 7 Nordeste 9 Nordeste 0 -- -- 86
2020-10-11 23:00:00 14.2 4 Noroeste 7 Noroeste 0 -- -- 83
2020-10-11 22:00:00 15 0 Calma 4 Este 0 -- -- 84
2020-10-11 21:00:00 -- -- -- -- -- -- -- -- --
2020-10-11 20:00:00 -- -- -- -- -- -- -- -- --
2020-10-11 19:00:00 19.4 17 Este 26 Sudeste 0 -- -- 64
2020-10-11 18:00:00 22.2 9 Este 15 Este 0 -- -- 57
2020-10-11 17:00:00 21.6 5 Sudeste 24 Sudeste 0 -- -- 59
2020-10-11 16:00:00 20.5 15 Este 24 Este 0 -- -- 61
2020-10-11 15:00:00 22.1 11 Sudeste 24 Este 0 -- -- 59
2020-10-11 14:00:00 21.2 15 Sudeste 32 Este 0 -- -- 63
2020-10-11 13:00:00 20.3 21 Sudeste 31 Sudeste 0 -- -- 69
2020-10-11 12:00:00 21.8 8 Sudeste 17 Sudeste 0 -- -- 62
2020-10-11 11:00:00 20.4 6 Sur 10 Sur 0 -- -- 68
2020-10-11 10:00:00 19 5 Sur 10 Sudoeste 0 -- -- 75
2020-10-11 09:00:00 17.4 0 Calma 4 Norte 0 -- -- 80
2020-10-11 08:00:00 17.1 3 Noroeste 9 Oeste 0 -- -- 81
2020-10-11 07:00:00 17.5 5 Oeste 16 Nordeste 0 -- -- 81
2020-10-11 06:00:00 17.3 13 Nordeste 20 Nordeste 0 -- -- 82
2020-10-11 05:00:00 17.8 5 Nordeste 10 Este 0 -- -- 82
2020-10-11 04:00:00 17.9 3 Este 8 Nordeste 0 -- -- 82
2020-10-11 03:00:00 18.1 4 Sudeste 6 Este 0 -- -- 82
2020-10-11 02:00:00 18.1 3 Sudeste 7 Sudeste 0 -- -- 81
2020-10-11 01:00:00 18.3 5 Sudeste 8 Sudeste 0 -- -- 80
2020-10-11 00:00:00 18.5 3 Sudeste 8 Sudeste 0 -- -- 80
2020-10-10 23:00:00 18.4 2 Sudoeste 6 Nordeste 0 -- -- 80
2020-10-10 22:00:00 18.2 3 Nordeste 5 Nordeste 0 -- -- 81
2020-10-10 21:00:00 18.4 4 Este 10 Este 0 -- -- 80
2020-10-10 20:00:00 18.8 6 Este 17 Sudeste 0 -- -- 77
2020-10-10 19:00:00 21.1 10 Este 20 Este 0 -- -- 68
2020-10-10 18:00:00 22.9 14 Este 25 Sudeste 0 -- -- 62
2020-10-10 17:00:00 24.6 16 Este 30 Este 0 -- -- 57
2020-10-10 16:00:00 25.5 17 Este 31 Este 0 -- -- 54
2020-10-10 15:00:00 26.5 18 Este 28 Este 0 -- -- 51
2020-10-10 14:00:00 26 13 Este 24 Este 0 -- -- 51
2020-10-10 13:00:00 25.2 10 Este 18 Este 0 -- -- 54
2020-10-10 12:00:00 23.3 6 Sudeste 14 Sudeste 0 -- -- 62
2020-10-10 11:00:00 20.9 5 Sudeste 10 Este 0 -- -- 71
2020-10-10 10:00:00 18.1 4 Este 9 Sudeste 0 -- -- 77
2020-10-10 09:00:00 15.2 0 Calma 7 Nordeste 0 -- -- 81
2020-10-10 08:00:00 14.9 6 Norte 8 Norte 0 -- -- 80
2020-10-10 07:00:00 14.6 4 Norte 8 Noroeste 0 -- -- 79
2020-10-10 06:00:00 14.6 6 Noroeste 8 Noroeste 0 -- -- 79
2020-10-10 05:00:00 14.8 4 Norte 9 Norte 0 -- -- 82
2020-10-10 04:00:00 15.3 3 Norte 4 Norte 0 -- -- 91
2020-10-10 03:00:00 15.3 0 Calma 4 Nordeste 0 -- -- 85
2020-10-10 02:00:00 15.9 3 Nordeste 7 Nordeste 0 -- -- 87
2020-10-10 01:00:00 16.6 0 Calma 6 Noroeste 0 -- -- 81
2020-10-10 00:00:00 17 4 Noroeste 8 Norte 0 -- -- 83
2020-10-09 23:00:00 17.4 5 Noroeste 6 Noroeste 0 -- -- 83
2020-10-09 22:00:00 17.7 2 Norte 6 Nordeste 0 -- -- 82
2020-10-09 21:00:00 18.4 3 Nordeste 6 Sudeste 0 -- -- 79
2020-10-09 20:00:00 19.9 3 Sudeste 13 Sudeste 0 -- -- 73
2020-10-09 19:00:00 21.7 9 Sudeste 19 Este 0 -- -- 68
2020-10-09 18:00:00 23.3 12 Este 24 Este 0 -- -- 63
2020-10-09 17:00:00 25.1 15 Sudeste 25 Este 0 -- -- 56
2020-10-09 16:00:00 25.4 14 Este 22 Este 0 -- -- 53
2020-10-09 15:00:00 26.4 12 Este 21 Este 0 -- -- 50
2020-10-09 14:00:00 25.8 15 Este 27 Este 0 -- -- 49
2020-10-09 13:00:00 26.6 14 Este 22 Este 0 -- -- 45
2020-10-09 12:00:00 25.1 5 Sudeste 12 Sudeste 0 -- -- 47
2020-10-09 11:00:00 20.7 0 Calma 4 Sur 0 -- -- 61
2020-10-09 10:00:00 18.1 0 Calma 9 Noroeste 0 -- -- 70
2020-10-09 09:00:00 15.2 7 Noroeste 12 Noroeste 0 -- -- 77
2020-10-09 08:00:00 14.3 5 Noroeste 12 Noroeste 0 -- -- 84
2020-10-09 07:00:00 14.5 5 Noroeste 10 Noroeste 0 -- -- 86
2020-10-09 06:00:00 14.8 8 Noroeste 10 Norte 0 -- -- 85
2020-10-09 05:00:00 14.9 7 Noroeste 8 Noroeste 0 -- -- 85
2020-10-09 04:00:00 15.4 6 Norte 9 Norte 0 -- -- 88
2020-10-09 03:00:00 16.2 3 Norte 4 Nordeste 0 -- -- 88
2020-10-09 02:00:00 17.4 3 Oeste 4 Oeste 0 -- -- 85
2020-10-09 01:00:00 18.1 2 Nordeste 4 Nordeste 0 -- -- 85
2020-10-09 00:00:00 18.7 3 Sudeste 4 Sudeste 0 -- -- 83
2020-10-08 23:00:00 18.4 0 Calma 5 Nordeste 0 -- -- 84
2020-10-08 22:00:00 18.6 3 Nordeste 9 Este 0 -- -- 82
2020-10-08 21:00:00 19.9 5 Sudeste 10 Este 0 -- -- 76
2020-10-08 20:00:00 21.6 6 Sudeste 19 Sudeste 0 -- -- 68
2020-10-08 19:00:00 24.1 14 Este 21 Este 0 -- -- 53
2020-10-08 18:00:00 24.9 13 Sudeste 28 Sudeste 0 -- -- 50
2020-10-08 17:00:00 28.7 14 Sudeste 30 Este 0 -- -- 37
2020-10-08 16:00:00 29.1 14 Sudeste 29 Este 0 -- -- 34
2020-10-08 15:00:00 28.3 17 Este 30 Este 0 -- -- 37
2020-10-08 14:00:00 28.2 14 Este 26 Sudeste 0 -- -- 36
2020-10-08 13:00:00 27.1 14 Este 26 Sudeste 0 -- -- 38
2020-10-08 12:00:00 24.9 6 Sur 14 Sudeste 0 -- -- 41
2020-10-08 11:00:00 22.1 4 Sur 10 Sur 0 -- -- 46
2020-10-08 10:00:00 19 3 Sur 5 Sur 0 -- -- 54
2020-10-08 09:00:00 15.4 3 Norte 12 Noroeste 0 -- -- 63
2020-10-08 08:00:00 15.7 10 Noroeste 13 Norte 0 -- -- 58
2020-10-08 07:00:00 15.9 7 Norte 9 Norte 0 -- -- 55
2020-10-08 06:00:00 16.1 6 Norte 12 Noroeste 0 -- -- 55
2020-10-08 05:00:00 16.8 9 Norte 13 Norte 0 -- -- 54
2020-10-08 04:00:00 16.5 8 Noroeste 10 Noroeste 0 -- -- 57
2020-10-08 03:00:00 17.6 5 Noroeste 10 Norte 0 -- -- 53
2020-10-08 02:00:00 17.5 5 Noroeste 11 Norte 0 -- -- 53
2020-10-08 01:00:00 18.8 7 Norte 17 Noroeste 0 -- -- 50
2020-10-08 00:00:00 19.2 11 Norte 15 Norte 0 -- -- 51
2020-10-07 23:00:00 19.6 7 Norte 12 Noroeste 0 -- -- 50
2020-10-07 22:00:00 20.2 7 Norte 9 Norte 0 -- -- 50
2020-10-07 21:00:00 21.6 6 Nordeste 16 Este 0 -- -- 46
2020-10-07 20:00:00 23.7 10 Este 23 Sudeste 0 -- -- 42
2020-10-07 19:00:00 27.2 17 Este 27 Este 0 -- -- 34
2020-10-07 18:00:00 29.5 18 Este 26 Sudeste 0 -- -- 30
2020-10-07 17:00:00 31 15 Sudeste 31 Sudeste 0 -- -- 29
2020-10-07 16:00:00 32.1 15 Sudeste 27 Sudeste 0 -- -- 27
2020-10-07 15:00:00 32.1 10 Sudoeste 18 Sudoeste 0 -- -- 26
2020-10-07 14:00:00 31 6 Sur 15 Sudeste 0 -- -- 27
2020-10-07 13:00:00 29.4 8 Sur 15 Sur 0 -- -- 30
2020-10-07 12:00:00 27.6 6 Sur 12 Sur 0 -- -- 32
2020-10-07 11:00:00 23.7 0 Calma 8 Sudoeste 0 -- -- 40
2020-10-07 10:00:00 19.4 5 Sudoeste 9 Oeste 0 -- -- 49
2020-10-07 09:00:00 15.7 5 Noroeste 11 Noroeste 0 -- -- 58
2020-10-07 08:00:00 15.2 6 Noroeste 11 Noroeste 0 -- -- 58
2020-10-07 07:00:00 15.8 7 Noroeste 12 Noroeste 0 -- -- 56
2020-10-07 06:00:00 16.8 6 Oeste 14 Noroeste 0 -- -- 53
2020-10-07 05:00:00 16.7 10 Noroeste 15 Norte 0 -- -- 54
2020-10-07 04:00:00 16.6 6 Noroeste 13 Noroeste 0 -- -- 54
2020-10-07 03:00:00 16.3 8 Noroeste 11 Noroeste 0 -- -- 55
2020-10-07 02:00:00 16.7 6 Noroeste 13 Noroeste 0 -- -- 54
2020-10-07 01:00:00 16.5 6 Noroeste 13 Norte 0 -- -- 54
2020-10-07 00:00:00 17.2 8 Norte 10 Noroeste 0 -- -- 52
2020-10-06 23:00:00 17.6 5 Noroeste 9 Noroeste 0 -- -- 50
2020-10-06 22:00:00 18.4 5 Norte 8 Norte 0 -- -- 48
2020-10-06 21:00:00 19.7 4 Norte 15 Este 0 -- -- 46
2020-10-06 20:00:00 21.2 12 Este 21 Este 0 -- -- 43
2020-10-06 19:00:00 24.3 13 Este 22 Este 0 -- -- 38
2020-10-06 18:00:00 26.1 15 Este 28 Este 0 -- -- 34
2020-10-06 17:00:00 28.3 15 Este 27 Este 0 -- -- 29
2020-10-06 16:00:00 29.5 9 Sudeste 21 Sudeste 0 -- -- 26
2020-10-06 15:00:00 28.2 8 Sur 16 Sudeste 0 -- -- 26
2020-10-06 14:00:00 26.8 5 Sudeste 12 Sudoeste 0 -- -- 28
2020-10-06 13:00:00 24.7 4 Sudoeste 12 Este 0 -- -- 31
2020-10-06 12:00:00 22.5 4 Nordeste 10 Sudoeste 0 -- -- 35
2020-10-06 11:00:00 19.1 4 Sudoeste 13 Sudoeste 0 -- -- 43
2020-10-06 10:00:00 15.7 4 Sudoeste 7 Norte 0 -- -- 54
2020-10-06 09:00:00 12.2 6 Norte 10 Norte 0 -- -- 62
2020-10-06 08:00:00 12.1 7 Noroeste 12 Noroeste 0 -- -- 62
2020-10-06 07:00:00 11.7 6 Oeste 17 Noroeste 0 -- -- 64
2020-10-06 06:00:00 12.6 13 Noroeste 16 Norte 0 -- -- 61
2020-10-06 05:00:00 13.1 8 Noroeste 14 Noroeste 0 -- -- 57
2020-10-06 04:00:00 12.5 5 Oeste 16 Norte 0 -- -- 59
2020-10-06 03:00:00 13.1 10 Norte 13 Norte 0 -- -- 58
2020-10-06 02:00:00 13.1 2 Sudoeste 14 Noroeste 0 -- -- 66
2020-10-06 01:00:00 13.8 9 Noroeste 16 Norte 0 -- -- 62
2020-10-06 00:00:00 13.8 9 Noroeste 10 Noroeste 0 -- -- 74
2020-10-05 23:00:00 14.6 5 Noroeste 10 Noroeste 0 -- -- 69
2020-10-05 22:00:00 15.7 3 Noroeste 8 Este 0 -- -- 67
2020-10-05 21:00:00 16.5 5 Este 17 Este 0 -- -- 62
2020-10-05 20:00:00 18.3 11 Este 23 Este 0 -- -- 55
2020-10-05 19:00:00 20.5 12 Este 28 Este 0 -- -- 51
2020-10-05 18:00:00 22.5 20 Este 33 Este 0 -- -- 47
2020-10-05 17:00:00 24.4 21 Este 35 Este 0 -- -- 42
2020-10-05 16:00:00 27.3 18 Este 32 Este 0 -- -- 33
2020-10-05 15:00:00 27.2 10 Sudoeste 22 Sudoeste 0 -- -- 27
2020-10-05 14:00:00 25.4 10 Sudoeste 26 Sur 0 -- -- 31
2020-10-05 13:00:00 23.8 9 Oeste 33 Oeste 0 -- -- 30
2020-10-05 12:00:00 21.1 19 Noroeste 37 Oeste 0 -- -- 37
2020-10-05 11:00:00 19.2 26 Oeste 36 Oeste 0 -- -- 45
2020-10-05 10:00:00 16.3 18 Sudoeste 30 Oeste 0 -- -- 58
2020-10-05 09:00:00 14.5 11 Oeste 25 Oeste 0 -- -- 62
2020-10-05 08:00:00 14.1 15 Oeste 25 Oeste 0 -- -- 66
2020-10-05 07:00:00 14.7 19 Oeste 26 Oeste 0 -- -- 63
2020-10-05 06:00:00 14.9 15 Oeste 27 Oeste 0 -- -- 63
2020-10-05 05:00:00 15.6 21 Oeste 36 Oeste 0 -- -- 63
2020-10-05 04:00:00 16.7 23 Oeste 34 Oeste 0 -- -- 59
2020-10-05 03:00:00 17.3 17 Oeste 31 Oeste 0 -- -- 55
2020-10-05 02:00:00 17.5 11 Noroeste 33 Noroeste 0 -- -- 54
2020-10-05 01:00:00 17.8 14 Noroeste 23 Noroeste 0 -- -- 53
2020-10-05 00:00:00 17.9 14 Oeste 23 Oeste 0 -- -- 51
2020-10-04 23:00:00 18.1 12 Oeste 18 Oeste 0 -- -- 49
2020-10-04 22:00:00 18.4 13 Oeste 47 Noroeste 0 -- -- 48
2020-10-04 21:00:00 18.9 31 Noroeste 50 Oeste 0 -- -- 46
2020-10-04 20:00:00 19.9 30 Oeste 46 Oeste 0 -- -- 42
2020-10-04 19:00:00 22.9 35 Noroeste 53 Noroeste 0 -- -- 39
2020-10-04 18:00:00 25 30 Noroeste 57 Noroeste 0 -- -- 35
2020-10-04 17:00:00 25.3 40 Noroeste 60 Noroeste 0 -- -- 32
2020-10-04 16:00:00 25.2 36 Noroeste 55 Oeste 0 -- -- 32
2020-10-04 15:00:00 24.6 32 Oeste 51 Oeste 0 -- -- 30
2020-10-04 14:00:00 23.4 36 Noroeste 60 Oeste 0 -- -- 30
2020-10-04 13:00:00 22.6 32 Noroeste 54 Noroeste 0 -- -- 26
2020-10-04 12:00:00 20.8 17 Sudoeste 32 Sudoeste 0 -- -- 36
2020-10-04 11:00:00 17.4 16 Sudoeste 27 Sudoeste 0 -- -- 43
2020-10-04 10:00:00 14.6 20 Sudoeste 30 Oeste 0 -- -- 49
2020-10-04 09:00:00 12.5 20 Oeste 31 Oeste 0 -- -- 55
2020-10-04 08:00:00 11.5 13 Oeste 25 Oeste 0 -- -- 56
2020-10-04 07:00:00 12.1 14 Oeste 31 Sudoeste 0 -- -- 53
2020-10-04 06:00:00 11.9 13 Oeste 29 Oeste 0 -- -- 51
2020-10-04 05:00:00 12.3 15 Oeste 22 Oeste 0 -- -- 49
2020-10-04 04:00:00 13 14 Oeste 28 Oeste 0 -- -- 46
2020-10-04 03:00:00 12.8 17 Oeste 25 Noroeste 0 -- -- 48
2020-10-04 02:00:00 12.6 10 Noroeste 25 Oeste 0 -- -- 50
2020-10-04 01:00:00 13.2 18 Oeste 27 Oeste 0 -- -- 49
2020-10-04 00:00:00 13 14 Oeste 29 Oeste 0 -- -- 52
2020-10-03 23:00:00 13.6 18 Oeste 27 Oeste 0 -- -- 51
2020-10-03 22:00:00 14.4 20 Oeste 36 Oeste 0 -- -- 48
2020-10-03 21:00:00 15.3 22 Oeste 34 Oeste 0 -- -- 44
2020-10-03 20:00:00 17.1 26 Oeste 41 Oeste 0 -- -- 41
2020-10-03 19:00:00 20.2 28 Oeste 44 Oeste 0 -- -- 32
2020-10-03 18:00:00 22.3 26 Noroeste 39 Noroeste 0 -- -- 25
2020-10-03 17:00:00 22.8 26 Oeste 41 Oeste 0 -- -- 25
2020-10-03 16:00:00 22 32 Oeste 42 Oeste 0 -- -- 26
2020-10-03 15:00:00 21.2 28 Oeste 44 Oeste 0 -- -- 29
2020-10-03 14:00:00 19.3 31 Oeste 46 Oeste 0 -- -- 36
2020-10-03 13:00:00 17.8 30 Oeste 55 Oeste 0 -- -- 39
2020-10-03 12:00:00 15.8 34 Oeste 53 Oeste 0 -- -- 44
2020-10-03 11:00:00 14 33 Oeste 61 Oeste 0 -- -- 50
2020-10-03 10:00:00 12.3 35 Oeste 54 Oeste 0 -- -- 54
2020-10-03 09:00:00 11 26 Oeste 33 Noroeste 0 -- -- 60
2020-10-03 08:00:00 10.5 17 Oeste 31 Oeste 0 -- -- 63
2020-10-03 07:00:00 10.8 17 Oeste 27 Oeste 0 -- -- 63
2020-10-03 06:00:00 11.2 12 Oeste 25 Oeste 0 -- -- 62
2020-10-03 05:00:00 11.5 16 Noroeste 24 Oeste 0 -- -- 62
2020-10-03 04:00:00 12.2 22 Oeste 45 Oeste 0 -- -- 58
2020-10-03 03:00:00 12.9 37 Oeste 61 Oeste 0 -- -- 56
2020-10-03 02:00:00 13.3 37 Oeste 55 Noroeste 0 -- -- 57
2020-10-03 01:00:00 13.6 36 Oeste 60 Oeste 0 -- -- 58
2020-10-03 00:00:00 14 31 Oeste 49 Noroeste 0 -- -- 58
2020-10-02 23:00:00 14.2 25 Oeste 54 Oeste 0 -- -- 65
2020-10-02 22:00:00 15 39 Oeste 55 Oeste 0 -- -- 61
2020-10-02 21:00:00 15.5 27 Sudoeste 51 Oeste 0 -- -- 71
2020-10-02 20:00:00 16.7 28 Oeste 71 Noroeste 0 -- -- 63
2020-10-02 19:00:00 17.9 48 Oeste 96 Oeste 0 -- -- 69
2020-10-02 18:00:00 25.7 57 Sudoeste 86 Oeste 0 -- -- 42
2020-10-02 17:00:00 25.1 62 Oeste 90 Sudoeste 0 -- -- 43
2020-10-02 16:00:00 24.5 56 Oeste 98 Oeste 0 -- -- 43
2020-10-02 15:00:00 26.4 37 Oeste 79 Oeste 0 -- -- 39
2020-10-02 14:00:00 25.2 60 Oeste 96 Oeste 0 -- -- 39
2020-10-02 13:00:00 22.4 57 Oeste 81 Sudoeste 0 -- -- 43
2020-10-02 12:00:00 21.4 18 Oeste 57 Oeste 0 -- -- 47
2020-10-02 11:00:00 20.2 19 Oeste 27 Sudoeste 0 -- -- 49
2020-10-02 10:00:00 19.2 21 Noroeste 43 Oeste 0 -- -- 50
2020-10-02 09:00:00 18.7 30 Noroeste 54 Noroeste 0 -- -- 51
2020-10-02 08:00:00 18.7 41 Noroeste 70 Oeste 0 -- -- 51
2020-10-02 07:00:00 18.7 33 Oeste 62 Oeste 0 -- -- 55
2020-10-02 06:00:00 19.1 45 Oeste 66 Oeste 0 -- -- 57
2020-10-02 05:00:00 19.8 37 Oeste 68 Oeste 0 -- -- 56
2020-10-02 04:00:00 20.3 45 Oeste 61 Oeste 0 -- -- 53
2020-10-02 03:00:00 20.9 37 Oeste 55 Oeste 0 -- -- 50
2020-10-02 02:00:00 21 19 Oeste 41 Oeste 0 -- -- 47
2020-10-02 01:00:00 21.4 13 Oeste 51 Oeste 0 -- -- 42
2020-10-02 00:00:00 22.2 33 Oeste 66 Oeste 0 -- -- 35
2020-10-01 23:00:00 22.8 37 Oeste 50 Noroeste 0 -- -- 30
2020-10-01 22:00:00 23.2 21 Oeste 34 Oeste 0 -- -- 28
2020-10-01 21:00:00 24.6 17 Sudoeste 39 Oeste 0 -- -- 30
2020-10-01 20:00:00 26.3 25 Oeste 46 Oeste 0 -- -- 29
2020-10-01 19:00:00 28.5 28 Oeste 46 Oeste 0 -- -- 26
2020-10-01 18:00:00 31.6 26 Noroeste 42 Oeste 0 -- -- 22
2020-10-01 17:00:00 32.2 29 Noroeste 44 Oeste 0 -- -- 19
2020-10-01 16:00:00 32.4 29 Oeste 45 Noroeste 0 -- -- 16
2020-10-01 15:00:00 32 26 Noroeste 44 Oeste 0 -- -- 18
2020-10-01 14:00:00 31.3 21 Oeste 39 Sudoeste 0 -- -- 18
2020-10-01 13:00:00 29 26 Noroeste 42 Oeste 0 -- -- 28
2020-10-01 12:00:00 27 20 Oeste 35 Oeste 0 -- -- 34
2020-10-01 11:00:00 24.4 15 Oeste 27 Oeste 0 -- -- 39
2020-10-01 10:00:00 21.8 10 Sudoeste 35 Oeste 0 -- -- 46
2020-10-01 09:00:00 19.7 23 Oeste 34 Oeste 0 -- -- 52
2020-10-01 08:00:00 19.1 22 Oeste 33 Oeste 0 -- -- 51
2020-10-01 07:00:00 19.7 18 Oeste 34 Oeste 0 -- -- 47
2020-10-01 06:00:00 20.7 22 Sudoeste 37 Sudoeste 0 -- -- 43
2020-10-01 05:00:00 21.2 18 Oeste 32 Oeste 0 -- -- 40
2020-10-01 04:00:00 21.3 15 Oeste 43 Oeste 0 -- -- 38
2020-10-01 03:00:00 21.2 24 Oeste 37 Oeste 0 -- -- 38
2020-10-01 02:00:00 18.4 13 Noroeste 17 Oeste 0 -- -- 54
2020-10-01 01:00:00 17.7 4 Norte 9 Norte 0 -- -- 79
2020-10-01 00:00:00 18.2 3 Noroeste 10 Oeste 0 -- -- 80